createdAt,value
2023-01-10T00:00:45.071Z,64.13
2023-01-10T00:03:14.477Z,65.58
2023-01-10T00:05:42.458Z,64.22
2023-01-10T00:08:15.758Z,63.35
2023-01-10T00:10:43.770Z,64.55
2023-01-10T00:13:24.184Z,65.19
2023-01-10T00:15:54.095Z,64.78
2023-01-10T00:18:24.160Z,65.26
2023-01-10T00:20:52.106Z,66.69
2023-01-10T00:23:23.294Z,68.61
2023-01-10T00:25:51.124Z,69.03
2023-01-10T00:28:20.662Z,66.28
2023-01-10T00:30:51.394Z,66.72
2023-01-10T00:33:20.739Z,74.66
2023-01-10T00:35:50.216Z,76.42
2023-01-10T00:38:18.156Z,73.88
2023-01-10T00:40:47.100Z,69.59
2023-01-10T00:43:44.101Z,75.69
2023-01-10T00:46:12.422Z,75.83
2023-01-10T00:48:41.124Z,77.51
2023-01-10T00:51:10.340Z,77.95
2023-01-10T00:53:38.329Z,77.57
2023-01-10T00:56:06.952Z,78.83
2023-01-10T00:58:34.997Z,79.07
2023-01-10T01:01:02.983Z,73.99
2023-01-10T01:03:30.824Z,68.42
2023-01-10T01:05:58.795Z,67.07
2023-01-10T01:08:27.998Z,67.93
2023-01-10T01:10:55.865Z,69.76
2023-01-10T01:13:23.748Z,65.66
2023-01-10T01:15:51.930Z,70.37
2023-01-10T01:18:22.269Z,76.46
2023-01-10T01:20:54.935Z,75.98
2023-01-10T01:23:23.429Z,77.69
2023-01-10T01:25:53.569Z,77.03
2023-01-10T01:28:22.705Z,67.49
2023-01-10T01:30:51.006Z,66.09
2023-01-10T01:33:19.279Z,64.22
2023-01-10T01:35:49.218Z,64.04
2023-01-10T01:38:17.592Z,63.16
2023-01-10T01:40:45.620Z,66.04
2023-01-10T01:43:25.185Z,75.76
2023-01-10T01:45:54.035Z,77.71
2023-01-10T01:48:30.730Z,78.65
2023-01-10T01:51:05.640Z,77.27
2023-01-10T01:53:38.386Z,77.57
2023-01-10T01:56:11.359Z,79.38
2023-01-10T01:58:47.654Z,79.82
2023-01-10T02:01:17.453Z,74.62
2023-01-10T02:03:49.767Z,65.85
2023-01-10T02:06:19.565Z,65.15
2023-01-10T02:08:56.361Z,73.67
2023-01-10T02:11:24.206Z,76.30
2023-01-10T02:13:54.414Z,68.74
2023-01-10T02:16:22.397Z,63.76
2023-01-10T02:18:50.339Z,62.96
2023-01-10T02:21:39.104Z,61.88
2023-01-10T02:24:42.815Z,61.97
2023-01-10T02:27:39.721Z,61.13
2023-01-10T02:30:38.240Z,64.41
2023-01-10T02:33:16.089Z,63.88
2023-01-10T02:35:57.825Z,64.04
2023-01-10T02:38:36.553Z,62.63
2023-01-10T02:41:15.502Z,63.11
2023-01-10T02:43:49.104Z,62.87
2023-01-10T02:46:21.457Z,68.56
2023-01-10T02:48:50.838Z,74.16
2023-01-10T02:51:20.938Z,73.44
2023-01-10T02:53:52.498Z,75.11
2023-01-10T02:56:53.545Z,76.28
2023-01-10T02:59:50.930Z,77.03
2023-01-10T03:02:32.677Z,77.39
2023-01-10T03:05:11.085Z,76.87
2023-01-10T03:07:47.699Z,77.22
2023-01-10T03:10:20.002Z,78.18
2023-01-10T03:12:55.303Z,78.21
2023-01-10T03:15:25.218Z,77.83
2023-01-10T03:17:56.743Z,79.15
2023-01-10T03:20:28.122Z,79.14
2023-01-10T03:22:57.441Z,78.33
2023-01-10T03:25:32.660Z,78.24
2023-01-10T03:28:06.438Z,78.08
2023-01-10T03:30:42.896Z,75.45
2023-01-10T03:33:12.632Z,67.90
2023-01-10T03:35:57.573Z,65.73
2023-01-10T03:38:31.401Z,66.78
2023-01-10T03:41:05.646Z,75.16
2023-01-10T03:43:59.352Z,70.13
2023-01-10T03:46:32.042Z,67.07
2023-01-10T03:49:01.390Z,64.11
2023-01-10T03:51:31.449Z,65.01
2023-01-10T03:54:01.029Z,67.37
2023-01-10T03:56:29.140Z,65.40
2023-01-10T03:58:57.241Z,63.96
2023-01-10T04:01:25.214Z,68.19
2023-01-10T04:03:53.217Z,65.86
2023-01-10T04:06:21.231Z,66.17
2023-01-10T04:08:50.545Z,66.18
2023-01-10T04:11:18.409Z,65.98
2023-01-10T04:13:46.327Z,65.64
2023-01-10T04:16:14.321Z,69.42
2023-01-10T04:18:42.245Z,63.57
2023-01-10T04:21:10.104Z,62.75
2023-01-10T04:23:37.999Z,64.22
2023-01-10T04:26:07.292Z,64.27
2023-01-10T04:28:35.137Z,61.64
2023-01-10T04:31:03.273Z,62.05
2023-01-10T04:33:31.221Z,65.03
2023-01-10T04:35:59.158Z,67.54
2023-01-10T04:38:27.087Z,64.97
2023-01-10T04:40:55.736Z,64.12
2023-01-10T04:43:25.998Z,64.57
2023-01-10T04:45:54.000Z,63.44
2023-01-10T04:48:22.184Z,65.04
2023-01-10T04:50:51.803Z,66.61
2023-01-10T04:53:19.989Z,71.50
2023-01-10T04:55:48.203Z,65.44
2023-01-10T04:58:16.066Z,63.47
2023-01-10T05:00:45.250Z,65.17
2023-01-10T05:03:13.269Z,71.45
2023-01-10T05:05:41.118Z,70.82
2023-01-10T05:08:09.055Z,71.20
2023-01-10T05:10:36.927Z,65.87
2023-01-10T05:13:04.877Z,66.01
2023-01-10T05:15:32.847Z,68.24
2023-01-10T05:18:02.356Z,62.60
2023-01-10T05:20:30.208Z,63.04
2023-01-10T05:22:58.021Z,63.69
2023-01-10T05:25:25.786Z,63.71
2023-01-10T05:27:53.629Z,66.10
2023-01-10T05:30:21.761Z,66.64
2023-01-10T05:32:49.698Z,69.17
2023-01-10T05:35:19.226Z,71.34
2023-01-10T05:37:47.194Z,71.91
2023-01-10T05:40:15.094Z,71.15
2023-01-10T05:42:43.131Z,71.97
2023-01-10T05:45:12.122Z,72.69
2023-01-10T05:47:40.041Z,72.19
2023-01-10T05:50:08.784Z,72.94
2023-01-10T05:52:38.108Z,71.78
2023-01-10T05:55:07.094Z,71.87
2023-01-10T05:57:35.066Z,63.19
2023-01-10T06:00:05.038Z,64.88
2023-01-10T06:02:39.352Z,66.42
2023-01-10T06:05:08.009Z,71.26
2023-01-10T06:07:37.112Z,72.83
2023-01-10T06:10:05.386Z,73.37
2023-01-10T06:12:33.177Z,70.16
2023-01-10T06:15:00.959Z,69.55
2023-01-10T06:17:29.325Z,63.00
2023-01-10T06:19:57.071Z,67.47
2023-01-10T06:22:26.141Z,63.35
2023-01-10T06:24:55.464Z,65.95
2023-01-10T06:27:23.163Z,70.29
2023-01-10T06:29:50.947Z,69.42
2023-01-10T06:32:18.626Z,66.80
2023-01-10T06:34:46.416Z,71.52
2023-01-10T06:37:14.126Z,71.93
2023-01-10T06:39:41.854Z,64.63
2023-01-10T06:42:10.983Z,64.49
2023-01-10T06:44:38.737Z,61.10
2023-01-10T06:47:06.510Z,61.52
2023-01-10T06:49:34.197Z,62.11
2023-01-10T06:52:01.933Z,62.06
2023-01-10T06:54:29.626Z,60.54
2023-01-10T06:56:57.402Z,61.28
2023-01-10T06:59:26.473Z,59.84
2023-01-10T07:01:54.333Z,60.17
2023-01-10T07:04:22.126Z,59.86
2023-01-10T07:06:49.876Z,60.15
2023-01-10T07:09:17.790Z,59.79
2023-01-10T07:11:45.537Z,60.38
2023-01-10T07:14:13.314Z,60.27
2023-01-10T07:16:42.380Z,59.69
2023-01-10T07:19:10.080Z,60.97
2023-01-10T07:21:37.790Z,61.35
2023-01-10T07:24:06.160Z,59.65
2023-01-10T07:26:34.026Z,60.14
2023-01-10T07:29:01.749Z,60.46
2023-01-10T07:31:29.599Z,62.10
2023-01-10T07:33:58.713Z,60.39
2023-01-10T07:36:26.518Z,60.11
2023-01-10T07:38:54.228Z,61.20
2023-01-10T07:41:21.963Z,62.16
2023-01-10T07:43:49.839Z,60.71
2023-01-10T07:46:17.679Z,60.87
2023-01-10T07:48:46.888Z,62.73
2023-01-10T07:51:16.089Z,61.24
2023-01-10T07:53:44.053Z,62.58
2023-01-10T07:56:11.999Z,64.14
2023-01-10T07:58:39.766Z,66.43
2023-01-10T08:01:08.014Z,64.59
2023-01-10T08:03:36.763Z,60.49
2023-01-10T08:06:06.319Z,58.91
2023-01-10T08:08:35.998Z,63.80
2023-01-10T08:11:04.078Z,67.12
2023-01-10T08:13:32.269Z,68.93
2023-01-10T08:16:00.255Z,67.16
2023-01-10T08:18:28.921Z,68.59
2023-01-10T08:20:56.930Z,69.73
2023-01-10T08:23:24.781Z,70.02
2023-01-10T08:25:55.292Z,70.33
2023-01-10T08:28:23.071Z,70.80
2023-01-10T08:30:55.386Z,69.34
2023-01-10T08:33:24.436Z,70.72
2023-01-10T08:35:52.411Z,68.90
2023-01-10T08:38:20.203Z,69.54
2023-01-10T08:40:47.945Z,69.02
2023-01-10T08:43:17.058Z,69.88
2023-01-10T08:45:44.960Z,69.42
2023-01-10T08:48:12.915Z,69.39
2023-01-10T08:50:40.671Z,69.38
2023-01-10T08:53:08.423Z,69.76
2023-01-10T08:55:36.292Z,69.91
2023-01-10T08:58:04.100Z,69.63
2023-01-10T09:00:33.280Z,69.72
2023-01-10T09:03:01.080Z,69.58
2023-01-10T09:05:28.851Z,69.39
2023-01-10T09:08:00.067Z,69.37
2023-01-10T09:10:27.937Z,69.27
2023-01-10T09:12:55.774Z,67.71
2023-01-10T09:15:24.472Z,69.64
2023-01-10T09:17:56.212Z,67.31
2023-01-10T09:20:25.703Z,69.46
2023-01-10T09:22:53.947Z,67.46
2023-01-10T09:25:22.297Z,68.16
2023-01-10T09:27:57.491Z,68.08
2023-01-10T09:30:25.536Z,68.24
2023-01-10T09:32:55.946Z,69.62
2023-01-10T09:35:24.452Z,63.12
2023-01-10T09:37:55.079Z,66.64
2023-01-10T09:40:35.453Z,67.53
2023-01-10T09:43:11.573Z,66.14
2023-01-10T09:45:49.773Z,66.97
2023-01-10T09:48:25.261Z,67.12
2023-01-10T09:51:10.080Z,66.84
2023-01-10T09:53:43.919Z,66.69
2023-01-10T09:56:15.497Z,67.15
2023-01-10T09:58:45.303Z,67.72
2023-01-10T10:01:18.165Z,68.62
2023-01-10T10:03:57.425Z,68.49
2023-01-10T10:06:25.606Z,67.93
2023-01-10T10:08:54.146Z,67.49
2023-01-10T10:11:38.906Z,67.43
2023-01-10T10:14:16.091Z,67.01
2023-01-10T10:16:59.626Z,67.01
2023-01-10T10:19:46.321Z,66.98
2023-01-10T10:22:20.203Z,65.44
2023-01-10T10:24:59.138Z,65.41
2023-01-10T10:27:37.580Z,64.09
2023-01-10T10:30:28.797Z,63.30
2023-01-10T10:33:14.930Z,62.62
2023-01-10T10:35:50.757Z,62.41
2023-01-10T10:38:22.575Z,61.54
2023-01-10T10:40:52.359Z,60.41
2023-01-10T10:43:28.291Z,58.78
2023-01-10T10:46:00.872Z,56.73
2023-01-10T10:48:30.963Z,57.16
2023-01-10T10:51:07.218Z,56.60
2023-01-10T10:53:35.901Z,54.88
2023-01-10T10:56:05.706Z,52.18
2023-01-10T10:58:34.347Z,50.14
2023-01-10T11:01:02.285Z,50.65
2023-01-10T11:03:39.538Z,51.73
2023-01-10T11:06:11.111Z,51.25
2023-01-10T11:08:42.384Z,54.63
2023-01-10T11:11:19.727Z,53.41
2023-01-10T11:13:52.081Z,53.21
2023-01-10T11:16:29.656Z,54.64
2023-01-10T11:19:12.259Z,54.64
2023-01-10T11:21:42.397Z,54.27
2023-01-10T11:24:23.943Z,54.99
2023-01-10T11:26:53.033Z,54.30
2023-01-10T11:29:26.138Z,54.52
2023-01-10T11:31:56.021Z,54.74
2023-01-10T11:34:27.220Z,56.82
2023-01-10T11:36:59.193Z,56.61
2023-01-10T11:39:27.790Z,56.05
2023-01-10T11:41:56.846Z,55.34
2023-01-10T11:44:26.286Z,56.18
2023-01-10T11:46:57.041Z,57.01
2023-01-10T11:49:31.929Z,56.16
2023-01-10T11:52:05.734Z,56.73
2023-01-10T11:54:34.477Z,57.77
2023-01-10T11:57:05.293Z,56.50
2023-01-10T11:59:33.900Z,56.16
2023-01-10T12:02:04.990Z,56.86
2023-01-10T12:04:35.712Z,57.28
2023-01-10T12:07:09.568Z,56.88
2023-01-10T12:09:40.726Z,57.05
2023-01-10T12:12:18.814Z,58.74
2023-01-10T12:14:47.002Z,58.54
2023-01-10T12:17:25.061Z,58.49
2023-01-10T12:19:55.328Z,58.20
2023-01-10T12:22:28.332Z,58.68
2023-01-10T12:24:58.243Z,58.85
2023-01-10T12:27:29.227Z,57.75
2023-01-10T12:30:04.865Z,57.01
2023-01-10T12:32:38.524Z,57.40
2023-01-10T12:35:12.043Z,58.45
2023-01-10T12:37:49.292Z,57.93
2023-01-10T12:40:26.435Z,52.88
2023-01-10T12:43:16.863Z,53.72
2023-01-10T12:45:50.030Z,56.66
2023-01-10T12:48:26.386Z,56.52
2023-01-10T12:51:01.091Z,59.34
2023-01-10T12:53:34.913Z,58.37
2023-01-10T12:56:06.387Z,57.00
2023-01-10T12:58:42.972Z,57.07
2023-01-10T13:01:14.106Z,56.49
2023-01-10T13:03:43.459Z,56.77
2023-01-10T13:06:22.174Z,56.22
2023-01-10T13:08:52.383Z,56.58
2023-01-10T13:11:23.705Z,56.75
2023-01-10T13:13:57.472Z,56.78
2023-01-10T13:16:32.510Z,55.63
2023-01-10T13:19:03.812Z,55.79
2023-01-10T13:21:33.395Z,56.50
2023-01-10T13:24:05.074Z,56.50
2023-01-10T13:26:53.341Z,55.82
2023-01-10T13:29:23.169Z,55.84
2023-01-10T13:31:57.253Z,55.96
2023-01-10T13:34:27.884Z,55.09
2023-01-10T13:36:58.654Z,55.42
2023-01-10T13:39:33.144Z,54.99
2023-01-10T13:42:46.603Z,54.23
2023-01-10T13:45:25.680Z,52.89
2023-01-10T13:48:02.045Z,55.12
2023-01-10T13:50:58.127Z,55.36
2023-01-10T13:54:05.461Z,54.66
2023-01-10T13:56:40.661Z,51.78
2023-01-10T13:59:53.060Z,54.97
2023-01-10T14:02:31.518Z,55.35
2023-01-10T14:05:01.565Z,55.90
2023-01-10T14:07:31.638Z,56.81
2023-01-10T14:10:04.937Z,56.13
2023-01-10T14:12:40.109Z,56.51
2023-01-10T14:15:22.768Z,56.08
2023-01-10T14:17:58.562Z,55.91
2023-01-10T14:20:26.735Z,56.21
2023-01-10T14:23:07.350Z,55.61
2023-01-10T14:25:36.918Z,55.11
2023-01-10T14:28:17.943Z,55.41
2023-01-10T14:30:46.988Z,54.82
2023-01-10T14:33:18.916Z,54.33
2023-01-10T14:35:51.407Z,55.23
2023-01-10T14:38:25.179Z,55.87
2023-01-10T14:40:56.222Z,57.06
2023-01-10T14:43:29.550Z,57.80
2023-01-10T14:46:02.277Z,58.16
2023-01-10T14:48:33.122Z,57.46
2023-01-10T14:51:23.292Z,57.50
2023-01-10T14:53:57.491Z,57.72
2023-01-10T14:56:27.971Z,57.69
2023-01-10T14:58:57.275Z,58.24
2023-01-10T15:01:27.750Z,58.13
2023-01-10T15:03:57.889Z,57.86
2023-01-10T15:06:26.323Z,58.09
2023-01-10T15:08:58.771Z,56.25
2023-01-10T15:11:28.867Z,56.96
2023-01-10T15:14:04.298Z,57.44
2023-01-10T15:16:33.355Z,57.64
2023-01-10T15:19:01.333Z,57.91
2023-01-10T15:21:29.651Z,58.21
2023-01-10T15:23:57.488Z,58.37
2023-01-10T15:26:30.210Z,57.46
2023-01-10T15:29:10.693Z,58.11
2023-01-10T15:31:39.443Z,58.17
2023-01-10T15:34:12.206Z,56.82
2023-01-10T15:36:46.758Z,57.75
2023-01-10T15:39:20.972Z,57.42
2023-01-10T15:41:49.145Z,56.62
2023-01-10T15:44:34.770Z,57.09
2023-01-10T15:47:02.507Z,56.25
2023-01-10T15:49:30.617Z,56.91
2023-01-10T15:51:58.599Z,57.23
2023-01-10T15:54:32.079Z,56.70
2023-01-10T15:57:06.591Z,56.80
2023-01-10T15:59:39.276Z,57.38
2023-01-10T16:02:22.607Z,57.78
2023-01-10T16:04:51.949Z,57.99
2023-01-10T16:07:25.025Z,58.29
2023-01-10T16:09:57.248Z,58.25
2023-01-10T16:12:45.301Z,58.97
2023-01-10T16:15:19.798Z,59.06
2023-01-10T16:17:48.950Z,59.40
2023-01-10T16:20:18.820Z,59.28
2023-01-10T16:22:48.920Z,58.63
2023-01-10T16:25:19.451Z,59.58
2023-01-10T16:27:48.390Z,59.76
2023-01-10T16:30:24.854Z,60.13
2023-01-10T16:32:52.875Z,60.31
2023-01-10T16:35:21.551Z,60.23
2023-01-10T16:37:49.653Z,60.64
2023-01-10T16:40:23.425Z,60.83
2023-01-10T16:43:08.837Z,60.68
2023-01-10T16:45:38.042Z,61.45
2023-01-10T16:48:06.635Z,61.29
2023-01-10T16:50:34.607Z,61.82
2023-01-10T16:53:06.028Z,61.98
2023-01-10T16:55:42.917Z,61.91
2023-01-10T16:58:11.086Z,61.99
2023-01-10T17:00:42.327Z,62.46
2023-01-10T17:03:14.956Z,62.88
2023-01-10T17:05:43.097Z,62.82
2023-01-10T17:08:16.644Z,62.66
2023-01-10T17:10:46.435Z,63.65
2023-01-10T17:13:17.114Z,64.05
2023-01-10T17:15:46.266Z,63.86
2023-01-10T17:18:13.997Z,60.07
2023-01-10T17:20:41.766Z,66.41
2023-01-10T17:23:11.711Z,69.43
2023-01-10T17:25:39.681Z,70.80
2023-01-10T17:28:07.453Z,72.33
2023-01-10T17:30:35.203Z,72.90
2023-01-10T17:33:05.361Z,74.31
2023-01-10T17:35:33.184Z,75.11
2023-01-10T17:38:01.267Z,74.17
2023-01-10T17:40:29.003Z,77.06
2023-01-10T17:42:56.769Z,78.53
2023-01-10T17:45:24.998Z,74.46
2023-01-10T17:47:52.963Z,69.64
2023-01-10T17:50:22.274Z,76.70
2023-01-10T17:52:50.579Z,78.05
2023-01-10T17:55:18.585Z,71.44
2023-01-10T17:57:46.371Z,70.83
2023-01-10T18:00:15.375Z,71.71
2023-01-10T18:02:43.462Z,72.99
2023-01-10T18:05:11.357Z,81.48
2023-01-10T18:07:40.618Z,81.41
2023-01-10T18:10:09.587Z,83.28
2023-01-10T18:12:37.674Z,84.37
2023-01-10T18:15:06.799Z,82.07
2023-01-10T18:17:34.528Z,83.76
2023-01-10T18:20:02.501Z,84.04
2023-01-10T18:22:48.043Z,81.87
2023-01-10T18:25:17.527Z,77.99
2023-01-10T18:27:50.210Z,80.35
2023-01-10T18:30:21.824Z,79.97
2023-01-10T18:32:49.798Z,72.96
2023-01-10T18:35:17.981Z,71.57
2023-01-10T18:37:46.079Z,72.43
2023-01-10T18:40:14.281Z,72.47
2023-01-10T18:42:43.512Z,78.39
2023-01-10T18:45:11.601Z,77.47
2023-01-10T18:47:39.357Z,79.58
2023-01-10T18:50:07.531Z,80.40
2023-01-10T18:52:35.313Z,83.59
2023-01-10T18:55:03.211Z,82.73
2023-01-10T18:57:32.444Z,79.23
2023-01-10T19:00:01.563Z,82.70
2023-01-10T19:02:29.311Z,83.78
2023-01-10T19:04:57.517Z,84.01
2023-01-10T19:07:25.569Z,77.38
2023-01-10T19:09:53.607Z,75.92
2023-01-10T19:12:21.432Z,78.06
2023-01-10T19:14:49.143Z,81.75
2023-01-10T19:17:18.292Z,78.78
2023-01-10T19:19:46.072Z,80.75
2023-01-10T19:22:13.770Z,79.73
2023-01-10T19:24:43.249Z,73.06
2023-01-10T19:27:11.419Z,73.43
2023-01-10T19:29:39.269Z,74.47
2023-01-10T19:32:07.137Z,71.10
2023-01-10T19:34:36.271Z,71.66
2023-01-10T19:37:04.084Z,81.82
2023-01-10T19:39:32.076Z,74.00
2023-01-10T19:41:59.857Z,71.88
2023-01-10T19:44:27.663Z,71.46
2023-01-10T19:46:55.569Z,70.00
2023-01-10T19:49:24.375Z,69.06
2023-01-10T19:51:55.473Z,67.57
2023-01-10T19:54:24.893Z,66.45
2023-01-10T19:56:52.716Z,67.83
2023-01-10T19:59:20.451Z,67.64
2023-01-10T20:01:48.640Z,69.96
2023-01-10T20:04:17.136Z,69.44
2023-01-10T20:06:45.172Z,69.88
2023-01-10T20:09:15.118Z,69.96
2023-01-10T20:11:46.049Z,73.89
2023-01-10T20:14:16.221Z,79.78
2023-01-10T20:16:44.411Z,82.85
2023-01-10T20:19:12.707Z,78.94
2023-01-10T20:21:42.121Z,77.90
2023-01-10T20:24:12.175Z,72.36
2023-01-10T20:26:41.641Z,69.17
2023-01-10T20:29:09.627Z,70.29
2023-01-10T20:31:37.510Z,68.14
2023-01-10T20:34:05.889Z,67.06
2023-01-10T20:36:33.729Z,67.40
2023-01-10T20:39:01.620Z,67.82
2023-01-10T20:41:31.096Z,67.10
2023-01-10T20:44:00.313Z,66.66
2023-01-10T20:46:30.711Z,68.08
2023-01-10T20:49:02.236Z,66.77
2023-01-10T20:51:33.112Z,67.14
2023-01-10T20:54:00.887Z,68.41
2023-01-10T20:56:30.565Z,68.76
2023-01-10T20:58:59.913Z,71.68
2023-01-10T21:01:35.107Z,73.27
2023-01-10T21:04:04.236Z,70.37
2023-01-10T21:06:32.035Z,67.93
2023-01-10T21:09:00.567Z,67.90
2023-01-10T21:11:28.631Z,67.29
2023-01-10T21:13:56.381Z,67.26
2023-01-10T21:16:25.720Z,67.25
2023-01-10T21:18:53.734Z,67.33
2023-01-10T21:21:23.410Z,67.68
2023-01-10T21:23:53.640Z,66.68
2023-01-10T21:26:21.439Z,67.06
2023-01-10T21:28:49.323Z,65.82
2023-01-10T21:31:18.950Z,66.16
2023-01-10T21:33:49.091Z,64.21
2023-01-10T21:36:17.231Z,64.74
2023-01-10T21:38:45.080Z,65.35
2023-01-10T21:41:35.932Z,68.18
2023-01-10T21:44:04.247Z,67.96
2023-01-10T21:46:32.073Z,65.00
2023-01-10T21:49:01.591Z,66.53
2023-01-10T21:51:29.675Z,68.81
2023-01-10T21:53:57.668Z,67.57
2023-01-10T21:56:25.672Z,71.31
2023-01-10T21:58:53.422Z,73.00
2023-01-10T22:01:21.339Z,74.81
2023-01-10T22:03:50.477Z,73.43
2023-01-10T22:06:19.680Z,74.68
2023-01-10T22:08:47.413Z,75.51
2023-01-10T22:11:15.140Z,67.92
2023-01-10T22:13:42.905Z,71.38
2023-01-10T22:16:10.715Z,74.92
2023-01-10T22:18:38.430Z,73.86
2023-01-10T22:21:06.478Z,69.89
2023-01-10T22:23:35.638Z,69.47
2023-01-10T22:26:05.622Z,72.90
2023-01-10T22:28:34.202Z,74.21
2023-01-10T22:31:02.881Z,74.37
2023-01-10T22:33:32.723Z,73.96
2023-01-10T22:36:04.622Z,75.67
2023-01-10T22:38:32.776Z,74.71
2023-01-10T22:41:07.573Z,75.73
2023-01-10T22:43:35.393Z,76.68
2023-01-10T22:46:03.359Z,77.62
2023-01-10T22:48:31.517Z,76.95
2023-01-10T22:51:01.252Z,77.38
2023-01-10T22:53:29.128Z,74.17
2023-01-10T22:55:56.929Z,69.09
2023-01-10T22:58:26.006Z,68.20
2023-01-10T23:00:53.777Z,73.03
2023-01-10T23:03:21.778Z,76.66
2023-01-10T23:05:49.774Z,76.28
2023-01-10T23:08:17.505Z,69.18
2023-01-10T23:10:46.775Z,70.08
2023-01-10T23:13:15.935Z,73.21
2023-01-10T23:15:45.511Z,69.21
2023-01-10T23:18:13.344Z,72.55
2023-01-10T23:20:41.086Z,72.88
2023-01-10T23:23:09.128Z,66.44
2023-01-10T23:25:37.232Z,64.65
2023-01-10T23:28:05.323Z,71.73
2023-01-10T23:30:33.111Z,74.79
2023-01-10T23:33:02.803Z,73.90
2023-01-10T23:35:30.623Z,71.43
2023-01-10T23:37:58.338Z,73.66
2023-01-10T23:40:26.159Z,76.10
2023-01-10T23:42:53.890Z,66.50
2023-01-10T23:45:21.652Z,70.31
2023-01-10T23:47:49.361Z,75.02
2023-01-10T23:50:20.082Z,75.48
2023-01-10T23:52:47.918Z,73.74
2023-01-10T23:55:16.121Z,66.41
2023-01-10T23:57:44.014Z,66.91
